This is the latest recevied weather packets stored in our database for station/object N3PB. If no packets are shown the sender has not sent any weather packets the latest 10 day(s).
| Time | Temp. | Humidity | Pressure | Rain* | Wind** | Luminosity | Snow |
|---|---|---|---|---|---|---|---|
| 1778266900 | 20.56° C | 41% | 1014.2 hPa | 0 mm | - | - | - |
| 1778265697 | 20° C | 36% | 1014.4 hPa | 0 mm | - | - | - |
| 1778265397 | 19.44° C | 39% | 1014.3 hPa | 0 mm | - | - | - |
| 1778265100 | 19.44° C | 37% | 1014.4 hPa | 0 mm | - | - | - |
| 1778264198 | 19.44° C | 39% | 1014.4 hPa | 0 mm | - | - | - |
| 1778263603 | 20° C | 37% | 1014.4 hPa | 0 mm | - | - | - |
| 1778262397 | 20° C | 43% | 1014.8 hPa | 0 mm | - | - | - |
| 1778259097 | 18.33° C | 44% | 1015.4 hPa | 0 mm | - | - | - |
| 1778258797 | 18.89° C | 46% | 1015.4 hPa | 0 mm | - | - | - |
| 1778258497 | 18.33° C | 42% | 1015.4 hPa | 0 mm | - | - | - |
| 1778257900 | 18.33° C | 45% | 1015.4 hPa | 0 mm | - | - | - |
| 1778256697 | 17.78° C | 46% | 1015.7 hPa | 0 mm | - | - | - |
| 1778255197 | 17.22° C | 43% | 1015.9 hPa | 0 mm | - | - | - |
| 1778253700 | 16.67° C | 49% | 1016 hPa | 0 mm | - | - | - |
| 1778252497 | 16.11° C | 48% | 1015.9 hPa | 0 mm | - | - | - |
| 1778248297 | 13.33° C | 57% | 1015.9 hPa | 0 mm | - | - | - |
| 1778247405 | 12.78° C | 62% | 1015.9 hPa | 0 mm | - | - | - |
| 1778245602 | 11.11° C | 68% | 1015.7 hPa | 0 mm | - | - | - |
| 1778244699 | 9.44° C | 71% | 1015.8 hPa | 0 mm | - | - | - |
| 1778244399 | 8.89° C | 74% | 1015.8 hPa | 0 mm | - | - | - |
| 1778242896 | 5° C | 89% | 1015.7 hPa | 0 mm | - | - | - |
| 1778242599 | 4.44° C | 89% | 1015.8 hPa | 0 mm | - | - | - |
| 1778241396 | 3.33° C | 91% | 1015.7 hPa | 0 mm | - | - | - |
| 1778241099 | 3.33° C | 91% | 1015.7 hPa | 0 mm | - | - | - |
| 1778240796 | 2.78° C | 90% | 1015.6 hPa | 0 mm | - | - | - |
* Rain latest hour (hover to see other rain measurements)
** Current wind speed in m/s (hover to see current wind gust speed)